Airfield :
LOGIN :

Register | Disclaimer

   EN    FR    IT 

 










Legend :    VFR   Marginal VFR   IFR   Intensive IFR   Very Intensive IFR
Visi :
Ceiling :
>= 8 km
>= 3000ft
5 to 8 km
1000 to 3000 ft
1500m to 5 km
500 to 1000 ft
800 to 1500m
200 to 500 ft
< 800m
< 200 ft
Symbols :   Thunderstorms  Fog  Heavy snow  Heavy precipitations  Wind > 20 kt
SIGMETs :     Misc.  Thunderstorms  Icing  Turbulence  Mountain Waves  Volcanic Ashes






- Airport Elevation : 215 ft
- IATA code : ABZ


EGPD - Aberdeen / Dyce

CURRENT METAR :
  • 150020Z AUTO 31011KT 9999 NCD 04/02 Q1014

EXPIRED METARs :
  • 142350Z AUTO 31013KT 9999 FEW032 04/03 Q1014
  • 142320Z AUTO 32013KT 9999 -RA SCT017/// SCT029/// //////TCU 04/03 Q1013 NOSIG
  • 142250Z AUTO 32011KT 9999 BKN021/// BKN035/// //////TCU 04/02 Q1013 NOSIG
  • 142220Z AUTO 32009KT 9999 SCT022 BKN028 04/02 Q1013 NOSIG
  • 142150Z AUTO 30011G21KT 9000 -RA SCT014 BKN028 BKN042 04/02 Q1013 RERA NOSIG

TAF TAF EGPD
Valid from the 15 at 00:00 until the 16 at 00:00 UTC


142255Z 1500/1524 32012KT 9999 SCT020
PROB40
TEMPO 1500/1508 6000 SHRA BKN014
BECMG 1512/1515 03009KT
PROB40
TEMPO 1513/1524 6000 SHRA BKN014



MET'MAP, your aeronautical weather chart ! - Copyright ORBIFLY December 2007 - Disclaimer

ORBIFLY MET'MAP TEAM :

Programming & Development : Alexandra Zaïnal
Concept & Development : Baudouin d'Aumeries
Co-Development & Prog : Marc-Olivier Méhu
Technical & hardware support : Manuel Goepfert

Contact : metmap@orbifly.com




SOURCES & CREDITS :

   NOAA